NCAR-RAP Real-Time Weather Data

Output produced by METARs form (23 January 2018  15:35 UTC)
found at http://weather.rap.ucar.edu/surface/
 
RODN 231456Z AUTO 04007KT 10SM OVC085 16/13 A3005 RMK AO2 SLP183 T01560125 402010113 55001
RODN 231356Z AUTO 03006KT 10SM BKN060 OVC085 15/12 A3006 RMK AO2 SLP186 T01530124
RODN 231256Z AUTO 05009KT 10SM OVC045 15/13 A3005 RMK AO2 SLP183 T01510126
RODN 231156Z AUTO 05007KT 10SM CLR 12/10 A3005 RMK AO2 SLPNO T01210102 10185 20121 52013
RODN 231056Z AUTO 05008KT 10SM SCT085 14/11 A3004 RMK AO2 SLP180 T01430113
RODN 230956Z AUTO 05007KT 10SM BKN050 BKN075 BKN085 16/12 A3003 RMK AO2 SLP177 T01580120
RODN 230856Z AUTO 05007KT 10SM OVC045 17/11 A3001 RMK AO2 SLP170 T01680113 52014
RODN 230756Z AUTO 02007KT 10SM BKN044 OVC050 18/11 A3000 RMK AO2 SLP166 T01790110
RODN 230656Z AUTO 03007KT 10SM OVC042 18/11 A2999 RMK AO2 SLP163 T01820110
RODN 230556Z AUTO 05007KT 10SM OVC044 19/11 A2997 RMK AO2 SLP156 T01850111 10201 20166 56012
RODN 230456Z AUTO 05011KT 10SM BKN046 OVC065 19/12 A2997 RMK AO2 SLP156 T01930116
RODN 230356Z AUTO 07010KT 10SM BKN046 OVC060 19/11 A2999 RMK AO2 SLP163 T01910109
RODN 230256Z AUTO 08012G19KT 10SM OVC055 20/11 A3001 RMK AO2 SLP169 T02000109
RODN 230156Z AUTO 07012KT 10SM SCT060 20/10 A3002 RMK AO2 SLP173 T01970104
RODN 230056Z AUTO 05011KT 10SM OVC055 18/10 A3004 RMK AO2 SLP180 T01780099
RODN 222356Z AUTO 05008KT 9SM SCT055 17/11 A3004 RMK AO2 SLP180 70008 T01690105 10169 20110 51008
RODN 222256Z AUTO 07008KT 10SM BKN060 OVC120 14/10 A3003 RMK AO2 SLP177 T01420102
RODN 222156Z AUTO 06006KT 10SM CLR 12/09 A3003 RMK AO2 SLP177 T01210091
RODN 222056Z AUTO 05008KT 10SM FEW050 13/10 A3001 RMK AO2 SLP170 T01250100 52007
RODN 221956Z AUTO 04005KT 10SM OVC049 13/11 A3000 RMK AO2 SLP166 T01310106
RODN 221856Z AUTO 07005KT 10SM CLR 12/09 A3000 RMK AO2 SLP167 T01220092
RODN 221756Z AUTO 08006KT 10SM CLR 13/10 A2999 RMK AO2 SLP163 T01280096 10168 20128 58008
RODN 221656Z AUTO 03008KT 10SM BKN220 15/09 A3000 RMK AO2 SLP166 T01520091
RODN 221556Z AUTO 06004KT 10SM OVC046 15/11 A3002 RMK AO2 SLP173 T01490109
RODN 221456Z AUTO 02007KT 10SM SCT046 15/10 A3001 RMK AO2 SLP169 T01510099 402010151 50006
RODN 221356Z AUTO 03006KT 10SM OVC045 16/11 A3001 RMK AO2 SLP169 T01560110
RODN 221256Z AUTO 04008KT 10SM OVC044 17/10 A3001 RMK AO2 SLP169 T01650101
RODN 221156Z AUTO 04011KT 10SM BKN040 BKN210 17/10 A3000 RMK AO2 SLP166 T01680099 10191 20167 52015
RODN 221056Z AUTO 03014KT 10SM SCT040 BKN170 17/10 A2998 RMK AO2 SLP159 T01690103
RODN 220956Z AUTO 03011KT 10SM BKN038 OVC140 17/11 A2996 RMK AO2 SLP152 T01730109
RODN 220856Z AUTO 02012KT 10SM SCT040 BKN130 18/11 A2995 RMK AO2 SLP149 T01750111 52027
RODN 220756Z AUTO 01008KT 10SM FEW031 BKN039 BKN130 18/12 A2992 RMK AO2 SLP139 T01820124
RODN 220656Z AUTO 36014G22KT 10SM FEW026 BKN035 19/13 A2988 RMK AO2 SLP125 T01880128
RODN 220556Z AUTO 36011G19KT 10SM SCT024 BKN033 BKN120 19/14 A2987 RMK AO2 SLP122 60008 T01910137 10201 20188 55010
RODN 220456Z AUTO 35014G20KT 10SM FEW023 FEW034 SCT120 19/15 A2986 RMK AO2 SLP118 T01900145
RODN 220426Z AUTO 34017KT 10SM SCT023 OVC032 19/15 A2986 RMK AO2 PRESFR SLP118
RODN 220416Z AUTO 33013G20KT 10SM SCT023 OVC029 19/15 A2988 RMK AO2 CIG 023V032 CIG 027 RWY23 SLP125
RODN 220406Z AUTO 35013G20KT 10SM SCT022 OVC032 19/15 A2988 RMK AO2 SLP125
RODN 220356Z AUTO 33012G22KT 10SM BKN023 OVC032 20/15 A2988 RMK AO2 SLP125 T01950149
RODN 220336Z AUTO 34017G23KT 10SM BKN023 BKN030 OVC035 19/16 A2988 RMK AO2 SLP125
RODN 220256Z AUTO 33016G22KT 10SM SCT020 BKN026 OVC031 19/16 A2990 RMK AO2 RAE06 CIG 019V026 BKN V OVC SLP132 P0001 60008 T01920158 50012
RODN 220227Z AUTO 34017G22KT 10SM BKN016 BKN023 BKN028 OVC060 19/17 A2990 RMK AO2 RAE06 CIG 016V026 CIG 014 RWY23 SLP132
RODN 220217Z AUTO 34013G20KT 10SM SCT014 BKN026 OVC060 19/17 A2991 RMK AO2 RAE06 CIG 014 RWY23 SLP135
RODN 220207Z AUTO 33013G20KT 10SM SCT004 SCT013 BKN022 BKN028 OVC060 19/18 A2990 RMK AO2 RAE06 CIG 005V022 CIG 012 RWY23 SLP132
RODN 220206Z AUTO 33016G20KT 9SM -RA SCT004 SCT013 BKN022 BKN028 OVC060 19/18 A2991 RMK AO2 CIG 005V022 CIG 012 RWY23 SLP135
RODN 220156Z AUTO 33016G27KT 3SM -RA BR BKN005 19/18 A2991 RMK AO2 PK WND 30027/49 RAE03RAB23 BKN V OVC SLP135 P0005 T01920177
RODN 220151Z AUTO 32022G27KT 5SM RA BR OVC005 20/19 A2990 RMK AO2 WSHFT 48 RAE03RAB23 SLP132
RODN 220143Z AUTO 27004KT 4SM -RA BR OVC005 20/19 A2989 RMK AO2 RAE03RAB23 CIG 005V007 SLP128
RODN 220133Z AUTO 28005KT 8SM -RA OVC007 20/19 A2989 RMK AO2 RAE03RAB23 SLP128
RODN 220123Z AUTO 27003KT 10SM -RA OVC008 20/19 A2988 RMK AO2 RAE03RAB23 SLP125
RODN 220113Z AUTO 27004KT 9SM OVC008 20/19 A2988 RMK AO2 RAE03 CIG 008V010 OVC V BKN SLP125
RODN 220103Z AUTO 29004KT 8SM BKN010 OVC095 20/19 A2987 RMK AO2 RAE03 CIG 010V095 SLP121
RODN 220056Z AUTO 28003KT 7SM -RA BKN010 BKN095 20/19 A2987 RMK AO2 RAE18RAB46 CIG 010V100 SLP121 P0002 T01970187
RODN 220046Z AUTO 00000KT 10SM -RA FEW012 BKN100 19/18 A2987 RMK AO2 RAE18RAB46 SLP122
RODN 220028Z 00000KT 9SM FEW002 FEW036 SCT100 19/19 A2986 RMK AO2A RAE18 SLP118
RODN 220006Z 28003KT 4SM -RA BR BKN002 19/18 A2987 RMK AO2A BKN V OVC SLP122
RODN 212356Z AUTO 35007KT 3SM -RA BR BKN001 OVC005 19/18 A2986 RMK AO2 SLP118 P0028 60103 70106 T01880181 10200 20185 50004
RODN 212344Z AUTO 35007KT 3SM RA BR BKN001 OVC005 19/18 A2987 RMK AO2 CIG 001V003 SLP122
RODN 212334Z AUTO 32006KT 3SM -RA BR BKN003 19/18 A2988 RMK AO2 SLP125
RODN 212324Z 34005KT 1 3/4SM RA BR BKN002 19/18 A2987 RMK AO2A VIS 3/4V1 3/4 SLP122
RODN 212307Z 00000KT 5/8SM R05/1600V5000FT +RA OVC001 19/18 A2987 RMK AO2A SLP122
RODN 212259Z AUTO 01003KT 1SM R05/4000VP6000FT +RA BR SCT001 19/18 A2987 RMK AO2 VIS 1V1 3/4 SLP122
RODN 212256Z AUTO 02004KT 1 3/8SM +RA BR SCT001 19/18 A2987 RMK AO2 SLP122 P0056 T01860179
RODN 212253Z AUTO 36004KT 1 3/4SM +RA BR SCT001 19/18 A2987 RMK AO2 VIS 1 1/4V1 3/4 SLP122
RODN 212243Z AUTO 00000KT 1 1/8SM R05/6000FT RA BR SCT001 OVC029 19/18 A2987 RMK AO2 CIG 016 RWY23 SLP122
RODN 212235Z AUTO 00000KT 1SM R05/4500V6000FT +RA BR FEW001 OVC025 19/18 A2987 RMK AO2 VIS 1V1 1/2 CIG 016 RWY23 SLP122
RODN 212234Z AUTO 34003KT 1 1/8SM R05/5500FT +RA BR FEW001 OVC025 19/18 A2987 RMK AO2 CIG 016 RWY23 SLP122
RODN 212232Z AUTO 32003KT 1 1/4SM +RA BR FEW001 OVC024 19/18 A2988 RMK AO2 CIG 016 RWY23 SLP125
RODN 212222Z AUTO 31005KT 1 1/8SM R05/6000FT RA BR FEW001 19/18 A2988 RMK AO2 SLP125
RODN 212213Z AUTO 00000KT 1SM R05/2400VP6000FT +RA BR FEW001 19/18 A2987 RMK AO2 SLP122
RODN 212212Z AUTO 00000KT 1 1/8SM R05/4500FT +RA BR FEW001 19/18 A2987 RMK AO2 SLP122
RODN 212205Z AUTO 20006KT 1 1/4SM R05/5000FT +RA BR SCT001 19/18 A2988 RMK AO2 VIS 1 1/4V2 SLP125
RODN 212204Z AUTO 21005KT 1 1/4SM R05/5500FT +RA BR SCT001 19/18 A2988 RMK AO2 VIS 1 1/4V2 SLP125
RODN 212203Z AUTO 23005KT 1 1/4SM R05/5000FT +RA BR SCT001 19/18 A2988 RMK AO2 VIS 1 1/4V2 SLP125
RODN 212201Z AUTO 26005KT 1 3/8SM R05/5500FT +RA BR SCT001 OVC027 19/18 A2988 RMK AO2 VIS 1 3/8V2 CIG 022 RWY23 SLP125
RODN 212156Z AUTO 27004KT 2SM +RA BR SCT001 BKN026 OVC035 19/18 A2987 RMK AO2 RAB33 CIG 021 RWY23 SLP122 P0018 T01940179
RODN 212153Z AUTO 26003KT 2SM RA BR SCT001 BKN026 OVC035 19/18 A2987 RMK AO2 VIS 1 5/8V2 1/2 RAB33 CIG 021 RWY23 SLP122
RODN 212143Z AUTO 00000KT 3SM +RA BR SCT001 BKN024 OVC037 20/18 A2986 RMK AO2 RAB33 CIG 024V039 SLP118
RODN 212133Z AUTO 19003KT 10SM -RA OVC039 20/17 A2985 RMK AO2 RAB33 SLP115
RODN 212056Z AUTO 00000KT 10SM OVC044 20/18 A2985 RMK AO2 RAE06DZB06E08 SLP115 P0001 60001 T01980183 55014
RODN 212008Z AUTO 14005KT 7SM FEW034 OVC046 20/19 A2984 RMK AO2 RAE06DZB06E08 SLP111
RODN 211956Z AUTO 11006KT 7SM -RA OVC047 20/18 A2985 RMK AO2 RAE09DZB09E10RAB53 SLP115 P0000 T01960184
RODN 211953Z AUTO 10005KT 6SM -RA BR OVC047 20/18 A2985 RMK AO2 RAE09DZB09E10RAB53 SLP115
RODN 211910Z AUTO 09008KT 6SM BR FEW018 FEW038 OVC055 20/18 A2986 RMK AO2 RAE09DZB09E10 SLP118
RODN 211856Z AUTO 10006KT 8SM -RA FEW007 SCT020 OVC055 20/18 A2987 RMK AO2 DZB06E16DZB37E47DZB50E55RAB55 SLP121 P0000 T01970182
RODN 211850Z AUTO 09007KT 8SM -DZ SCT007 SCT033 OVC055 20/18 A2987 RMK AO2 DZB06E16DZB37E47DZB50 SLP121
RODN 211848Z AUTO 09008G15KT 8SM SCT007 SCT033 OVC055 20/18 A2987 RMK AO2 DZB06E16DZB37E47 SLP121
RODN 211847Z AUTO 10007G15KT 8SM -DZ SCT007 SCT028 OVC055 20/18 A2987 RMK AO2 DZB06E16DZB37E47 SLP121
RODN 211837Z AUTO 10008KT 8SM -DZ SCT007 BKN021 BKN037 OVC050 20/18 A2988 RMK AO2 DZB06E16DZB37 CIG 021V029 SLP125
RODN 211836Z AUTO 11006KT 8SM SCT007 BKN024 BKN037 OVC050 20/18 A2988 RMK AO2 DZB06E16 CIG 024V029 SLP125
RODN 211816Z AUTO 11007KT 7SM SCT026 BKN041 BKN049 OVC065 20/18 A2989 RMK AO2 DZB06E16 SLP128
RODN 211807Z AUTO 11008KT 8SM -DZ FEW009 SCT015 SCT025 BKN038 BKN050 OVC065 20/18 A2988 RMK AO2 DZB06 SLP125
RODN 211806Z AUTO 11008KT 8SM FEW009 SCT015 SCT025 BKN041 BKN050 OVC065 20/18 A2988 RMK AO2 SLP125
RODN 211756Z AUTO 12008KT 9SM SCT009 SCT015 BKN025 BKN035 20/18 A2989 RMK AO2 CIG 014V029 SLP128 60003 T01980179 10199 20191 57014
RODN 211746Z AUTO 11007KT 9SM SCT011 BKN017 BKN029 BKN036 BKN045 20/18 A2989 RMK AO2 CIG 017V036 BKN017 V SCT SLP128
RODN 211656Z AUTO 11006KT 9SM SCT049 BKN085 20/17 A2990 RMK AO2 RAB1556E08DZB08E09 SLP131 P0001 T01950174
RODN 211609Z AUTO 09006KT 8SM FEW014 BKN095 19/17 A2992 RMK AO2 RAB1556E08DZB08E09 SLP138
RODN 211557Z AUTO 09007KT 8SM -RA FEW005 BKN095 19/17 A2992 RMK AO2 RAB56 SLP138
RODN 211556Z AUTO 09006KT 9SM BKN095 19/17 A2992 RMK AO2 RAE38DZB38E39 SLP138 P0000 T01910172
RODN 211539Z AUTO 09007KT 8SM SCT025 BKN100 19/17 A2992 RMK AO2 RAE38DZB38E39 SLP138
RODN 211456Z AUTO 09008KT 7SM -RA OVC055 19/17 A2994 RMK AO2 RAB25 SLP145 P0002 60002 T01930171 402200131 57014
RODN 211425Z AUTO 09008KT 10SM -RA FEW019 FEW050 SCT060 BKN080 20/17 A2995 RMK AO2 RAB25 SLP148
RODN 211356Z AUTO 10007KT 10SM SCT046 OVC080 20/17 A2995 RMK AO2 DZB03E13 SLP148 P0000 T01990167
RODN 211313Z AUTO 08009KT 10SM BKN050 20/16 A2996 RMK AO2 DZB03E13 SLP152
RODN 211303Z AUTO 08009KT 10SM -DZ SCT050 SCT080 20/17 A2997 RMK AO2 DZB03 SLP155
RODN 211256Z AUTO 09010KT 10SM BKN049 BKN065 BKN080 20/16 A2997 RMK AO2 SLP155 T01970163
RODN 211156Z AUTO 07009KT 10SM SCT130 SCT150 19/16 A2998 RMK AO2 SLP159 60000 T01940162 10212 20191 50002
RODN 211056Z AUTO 07011KT 10SM SCT120 19/16 A2998 RMK AO2 SLP159 T01940160
RODN 210956Z AUTO 07010KT 10SM FEW110 19/16 A2998 RMK AO2 SLP159 T01920160
RODN 210856Z AUTO 06009KT 9SM SCT100 19/16 A2997 RMK AO2 SLP156 60000 T01930161 52005
RODN 210756Z AUTO 06010KT 10SM FEW060 BKN080 20/16 A2997 RMK AO2 DZE11DZB27E36 SLP156 P0000 T01980160
RODN 210736Z AUTO 07007KT 10SM FEW070 BKN085 20/16 A2997 RMK AO2 DZE11DZB27E36 SLP156
RODN 210727Z AUTO 08008KT 10SM -DZ FEW065 BKN090 20/16 A2997 RMK AO2 DZE11DZB27 SLP156
RODN 210711Z AUTO 08009KT 10SM FEW065 BKN090 20/16 A2997 RMK AO2 DZE11 SLP156
RODN 210656Z AUTO 07010KT 10SM -DZ FEW065 BKN095 20/16 A2996 RMK AO2 DZB54 SLP153 P0000 T02040160
RODN 210654Z AUTO 06010KT 10SM -DZ FEW065 BKN095 21/16 A2996 RMK AO2 DZB54 SLP152
RODN 210556Z AUTO 09010KT 10SM FEW023 BKN095 21/16 A2996 RMK AO2 SLP152 T02090156 10220 20184 56031
RODN 210456Z AUTO 07010KT 10SM FEW026 BKN100 21/16 A2996 RMK AO2 SLP152 T02120155
RODN 210356Z AUTO 07009KT 10SM FEW026 FEW120 22/16 A3000 RMK AO2 SLP165 T02170155